Rising Sun, Montana
Current Conditions -  °F | °C
As of 5:55 PM on Wednesday 17 Dec 2014 (Local Time) from KGPI Reporting Station
Overcast Overcast  
Wind Chill: 26°   Ceiling: 5500
Heat Index: 26°   Visibility: 10mi
Dew Point: 23°   Wind: 3mph
Humidity: 88%   Direction: 360°N
Pressure: 29.95"   Gusts: NA
Location:  48.7064°N, 113.591°W
Report Text: KGPI 180055Z 36003KT 10SM OVC055 M03/M05 A2995 RMK AO2 SLP173 T10331050 $
Loading
Personal Weather Stations






























Interactive Weather Map New forecast layout! Learn more

10-Day Weather Forecast

Advertisements
Track Severe Weather on mobile